aviador You're here:

KPHP Decoded Metar

PHILIP in SD, USA
Report Time2017-10-22 16:55:00
UTC Time2017-10-22 17:23:30
Flight Rules vfr VFR
Wind230° at 14 kt
W.Decomp.*RWY 23: 13.7 kt HW 2.7 kt LCW
RWY 30: 2.2 kt HW 13.8 kt LCW
W.Rank230° ranks 32
Current wind is above 230° avg. (8.1)
Visibility9999 m
Phenomena:N/A
Clouds:N/A
Expected CloudBase > 6,800 ft AGL from Temp-Dew spread
CeilingNone
Temp14°C (ISA +3)
Dew Point-3°C (31% RH)
AAT6.6°C
QNH1014 hPa
Density Alt2,644 ft
Elevation2,205 ft
Report Wrong Elevation
Raw Report
KPHP 221655Z AUTO 23014KT 10SM CLR 14/M03 A2995 RMK AO2 SLP144
T01391033=

Extra information for KPHP:More info

Metar Taf Metar & Taf Last 4 Metars F.Rules Stats Wind Profile Meteogram Temp Stats Airport Information Weather charts Add Link Nearby VenuesMetar ALERT Operation Metar Decoded Social comments

AIRNAV info for KPHP